Arch, New Mexico
Current Conditions -  °F | °C
As of 2:58 PM on Saturday 25 Oct 2014 (Local Time) from KCVS Reporting Station
Clear Clear  
Wind Chill: 85°   Ceiling: Unl
Heat Index: 85°   Visibility: 10mi
Dew Point: 42°   Wind: 13mph
Humidity: 23%   Direction: 230°SW
Pressure: 30.14"   Gusts: NA
Location:  34.1669°N, 103.266°W
Report Text: KCVS 252058Z AUTO 23011KT 10SM CLR 29/06 A3014 RMK AO2 SLP149 T02920057 57021 $
Loading
Personal Weather Stations






























Interactive Weather Map New forecast layout! Learn more

10-Day Weather Forecast

Advertisements
Track Severe Weather on mobile